createdAt,value
2022-12-03T00:00:23.688Z,-0.20
2022-12-03T00:02:50.849Z,-0.20
2022-12-03T00:05:24.581Z,-0.20
2022-12-03T00:07:51.633Z,-0.20
2022-12-03T00:10:18.789Z,-0.20
2022-12-03T00:12:52.549Z,-0.20
2022-12-03T00:15:19.613Z,-0.20
2022-12-03T00:17:46.675Z,-0.20
2022-12-03T00:20:28.601Z,-0.20
2022-12-03T00:22:55.640Z,-0.20
2022-12-03T00:25:22.748Z,-0.20
2022-12-03T00:27:56.683Z,-0.20
2022-12-03T00:30:23.731Z,-0.20
2022-12-03T00:33:04.673Z,-0.20
2022-12-03T00:35:38.237Z,-0.20
2022-12-03T00:38:11.610Z,-0.20
2022-12-03T00:40:38.687Z,-0.10
2022-12-03T00:43:05.748Z,-0.10
2022-12-03T00:45:39.584Z,-0.10
2022-12-03T00:48:06.806Z,-0.10
2022-12-03T00:50:33.865Z,-0.10
2022-12-03T00:53:07.666Z,-0.10
2022-12-03T00:55:34.734Z,-0.10
2022-12-03T00:58:01.709Z,-0.10
2022-12-03T01:00:35.579Z,-0.10
2022-12-03T01:03:03.453Z,-0.10
2022-12-03T01:05:30.559Z,-0.10
2022-12-03T01:08:04.607Z,-0.10
2022-12-03T01:10:31.577Z,-0.10
2022-12-03T01:12:58.559Z,-0.10
2022-12-03T01:15:31.616Z,-0.10
2022-12-03T01:17:58.596Z,-0.10
2022-12-03T01:20:25.704Z,-0.10
2022-12-03T01:22:59.577Z,-0.10
2022-12-03T01:25:26.511Z,-0.10
2022-12-03T01:27:53.547Z,-0.10
2022-12-03T01:30:27.653Z,-0.10
2022-12-03T01:32:54.604Z,-0.10
2022-12-03T01:35:34.589Z,-0.10
2022-12-03T01:38:08.255Z,-0.10
2022-12-03T01:40:41.623Z,-0.10
2022-12-03T01:43:08.576Z,-0.10
2022-12-03T01:45:35.655Z,-0.10
2022-12-03T01:48:09.566Z,-0.10
2022-12-03T01:50:37.241Z,-0.20
2022-12-03T01:53:05.107Z,-0.10
2022-12-03T01:55:38.600Z,-0.20
2022-12-03T01:58:05.813Z,-0.10
2022-12-03T02:00:33.029Z,-0.10
2022-12-03T02:03:19.618Z,-0.20
2022-12-03T02:05:46.859Z,-0.20
2022-12-03T02:08:53.584Z,-0.20
2022-12-03T02:11:31.852Z,-0.20
2022-12-03T02:14:13.591Z,-0.20
2022-12-03T02:16:43.109Z,-0.20
2022-12-03T02:19:34.635Z,-0.20
2022-12-03T02:22:34.569Z,-0.20
2022-12-03T02:25:26.597Z,-0.20
2022-12-03T02:27:56.723Z,-0.20
2022-12-03T02:30:33.600Z,-0.30
2022-12-03T02:33:01.507Z,-0.30
2022-12-03T02:35:47.619Z,-0.30
2022-12-03T02:38:27.977Z,-0.30
2022-12-03T02:41:08.603Z,-0.30
2022-12-03T02:43:36.559Z,-0.30
2022-12-03T02:46:07.573Z,-0.40
2022-12-03T02:48:48.570Z,-0.40
2022-12-03T02:51:15.670Z,-0.30
2022-12-03T02:53:57.633Z,-0.40
2022-12-03T02:56:30.365Z,-0.30
2022-12-03T02:59:09.601Z,-0.30
2022-12-03T03:01:36.784Z,-0.30
2022-12-03T03:04:05.454Z,-0.30
2022-12-03T03:06:39.608Z,-0.40
2022-12-03T03:09:06.714Z,-0.30
2022-12-03T03:11:33.924Z,-0.30
2022-12-03T03:14:09.575Z,-0.30
2022-12-03T03:16:36.783Z,-0.30
2022-12-03T03:19:04.170Z,-0.30
2022-12-03T03:21:37.608Z,-0.30
2022-12-03T03:24:05.821Z,-0.30
2022-12-03T03:26:32.915Z,-0.30
2022-12-03T03:29:08.622Z,-0.30
2022-12-03T03:31:36.273Z,-0.30
2022-12-03T03:34:24.641Z,-0.30
2022-12-03T03:36:51.667Z,-0.30
2022-12-03T03:39:18.682Z,-0.30
2022-12-03T03:41:53.647Z,-0.30
2022-12-03T03:44:20.792Z,-0.30
2022-12-03T03:46:48.900Z,-0.30
2022-12-03T03:49:23.627Z,-0.30
2022-12-03T03:51:50.750Z,-0.30
2022-12-03T03:54:18.237Z,-0.30
2022-12-03T03:56:51.672Z,-0.30
2022-12-03T03:59:18.989Z,-0.30
2022-12-03T04:01:46.697Z,-0.30
2022-12-03T04:04:29.917Z,-0.30
2022-12-03T04:06:56.883Z,-0.30
2022-12-03T04:09:23.898Z,-0.30
2022-12-03T04:12:15.601Z,-0.30
2022-12-03T04:14:42.634Z,-0.30
2022-12-03T04:17:09.624Z,-0.30
2022-12-03T04:19:43.605Z,-0.30
2022-12-03T04:22:28.956Z,-0.30
2022-12-03T04:25:22.618Z,-0.30
2022-12-03T04:28:07.987Z,-0.30
2022-12-03T04:30:41.617Z,-0.30
2022-12-03T04:33:27.120Z,-0.30
2022-12-03T04:36:06.634Z,-0.30
2022-12-03T04:38:34.286Z,-0.30
2022-12-03T04:41:01.219Z,-0.30
2022-12-03T04:43:36.658Z,-0.20
2022-12-03T04:46:03.740Z,-0.30
2022-12-03T04:48:30.777Z,-0.30
2022-12-03T04:51:04.675Z,-0.20
2022-12-03T04:53:31.771Z,-0.20
2022-12-03T04:56:12.640Z,-0.20
2022-12-03T04:58:39.684Z,-0.30
2022-12-03T05:01:06.755Z,-0.20
2022-12-03T05:03:40.649Z,-0.20
2022-12-03T05:06:08.454Z,-0.20
2022-12-03T05:08:35.471Z,-0.20
2022-12-03T05:11:08.628Z,-0.20
2022-12-03T05:13:35.826Z,-0.20
2022-12-03T05:16:02.870Z,-0.20
2022-12-03T05:18:36.620Z,-0.20
2022-12-03T05:21:03.909Z,-0.20
2022-12-03T05:23:31.001Z,-0.20
2022-12-03T05:26:04.662Z,-0.20
2022-12-03T05:28:31.983Z,-0.20
2022-12-03T05:30:59.151Z,-0.20
2022-12-03T05:33:32.633Z,-0.20
2022-12-03T05:36:06.709Z,-0.20
2022-12-03T05:38:46.624Z,-0.20
2022-12-03T05:41:32.315Z,-0.20
2022-12-03T05:44:07.989Z,-0.20
2022-12-03T05:46:35.059Z,-0.20
2022-12-03T05:49:02.546Z,-0.20
2022-12-03T05:51:35.649Z,-0.20
2022-12-03T05:54:02.646Z,-0.30
2022-12-03T05:56:29.702Z,-0.20
2022-12-03T05:59:03.672Z,-0.30
2022-12-03T06:01:30.605Z,-0.30
2022-12-03T06:03:57.652Z,-0.30
2022-12-03T06:06:31.605Z,-0.30
2022-12-03T06:08:58.668Z,-0.30
2022-12-03T06:11:25.830Z,-0.30
2022-12-03T06:14:02.667Z,-0.30
2022-12-03T06:16:30.030Z,-0.30
2022-12-03T06:18:57.056Z,-0.30
2022-12-03T06:21:30.643Z,-0.30
2022-12-03T06:23:57.583Z,-0.30
2022-12-03T06:26:24.551Z,-0.30
2022-12-03T06:28:57.640Z,-0.30
2022-12-03T06:31:24.787Z,-0.30
2022-12-03T06:34:05.662Z,-0.30
2022-12-03T06:36:39.265Z,-0.30
2022-12-03T06:39:12.631Z,-0.30
2022-12-03T06:41:39.809Z,-0.30
2022-12-03T06:44:06.802Z,-0.40
2022-12-03T06:46:40.772Z,-0.30
2022-12-03T06:49:09.337Z,-0.30
2022-12-03T06:51:37.443Z,-0.30
2022-12-03T06:54:11.644Z,-0.30
2022-12-03T06:56:44.861Z,-0.30
2022-12-03T06:59:18.762Z,-0.30
2022-12-03T07:01:45.817Z,-0.40
2022-12-03T07:04:12.887Z,-0.30
2022-12-03T07:06:46.655Z,-0.30
2022-12-03T07:09:16.409Z,-0.30
2022-12-03T07:11:43.674Z,-0.30
2022-12-03T07:14:17.605Z,-0.30
2022-12-03T07:16:44.681Z,-0.30
2022-12-03T07:19:11.867Z,-0.30
2022-12-03T07:21:45.635Z,-0.30
2022-12-03T07:24:12.602Z,-0.30
2022-12-03T07:26:39.859Z,-0.30
2022-12-03T07:29:13.618Z,-0.30
2022-12-03T07:31:40.730Z,-0.30
2022-12-03T07:34:21.695Z,-0.30
2022-12-03T07:36:55.307Z,-0.30
2022-12-03T07:39:28.657Z,-0.30
2022-12-03T07:41:55.680Z,-0.30
2022-12-03T07:44:22.699Z,-0.30
2022-12-03T07:46:56.692Z,-0.30
2022-12-03T07:49:23.742Z,-0.30
2022-12-03T07:52:03.668Z,-0.20
2022-12-03T07:54:30.651Z,-0.20
2022-12-03T07:57:01.445Z,-0.20
2022-12-03T07:59:36.618Z,-0.20
2022-12-03T08:02:03.805Z,-0.20
2022-12-03T08:04:31.060Z,-0.20
2022-12-03T08:07:04.663Z,-0.20
2022-12-03T08:09:31.941Z,-0.10
2022-12-03T08:12:12.703Z,-0.10
2022-12-03T08:14:39.699Z,-0.10
2022-12-03T08:17:19.674Z,-0.10
2022-12-03T08:19:48.159Z,-0.20
2022-12-03T08:22:16.882Z,-0.20
2022-12-03T08:24:50.921Z,-0.20
2022-12-03T08:27:20.019Z,-0.20
2022-12-03T08:29:47.154Z,-0.20
2022-12-03T08:32:20.758Z,-0.20
2022-12-03T08:34:55.046Z,-0.10
2022-12-03T08:37:36.709Z,-0.20
2022-12-03T08:40:28.494Z,-0.10
2022-12-03T08:43:01.673Z,-0.10
2022-12-03T08:45:40.296Z,-0.10
2022-12-03T08:48:25.672Z,0.00
2022-12-03T08:51:17.174Z,0.00
2022-12-03T08:54:01.570Z,0.00
2022-12-03T08:56:33.584Z,0.00
2022-12-03T08:59:42.655Z,0.10
2022-12-03T09:02:28.070Z,0.10
2022-12-03T09:05:01.683Z,0.10
2022-12-03T09:07:28.744Z,0.10
2022-12-03T09:09:55.866Z,0.10
2022-12-03T09:12:29.678Z,0.10
2022-12-03T09:14:56.852Z,0.10
2022-12-03T09:17:24.000Z,0.10
2022-12-03T09:19:57.661Z,0.10
2022-12-03T09:22:24.646Z,0.10
2022-12-03T09:24:52.173Z,0.20
2022-12-03T09:27:27.667Z,0.20
2022-12-03T09:29:54.618Z,0.20
2022-12-03T09:32:21.729Z,0.20
2022-12-03T09:34:56.000Z,0.20
2022-12-03T09:37:29.917Z,0.10
2022-12-03T09:40:03.716Z,0.20
2022-12-03T09:42:30.896Z,0.10
2022-12-03T09:44:58.420Z,0.20
2022-12-03T09:47:31.689Z,0.20
2022-12-03T09:49:58.970Z,0.20
2022-12-03T09:52:40.885Z,0.20
2022-12-03T09:55:17.061Z,0.30
2022-12-03T09:57:50.704Z,0.30
2022-12-03T10:00:25.786Z,0.50
2022-12-03T10:03:29.465Z,0.50
2022-12-03T10:05:58.855Z,0.60
2022-12-03T10:08:34.800Z,0.70
2022-12-03T10:11:02.178Z,0.70
2022-12-03T10:13:32.506Z,0.80
2022-12-03T10:16:07.953Z,0.70
2022-12-03T10:18:41.279Z,0.70
2022-12-03T10:21:43.823Z,0.70
2022-12-03T10:24:33.864Z,0.60
2022-12-03T10:27:31.045Z,0.60
2022-12-03T10:30:22.448Z,0.60
2022-12-03T10:33:00.858Z,0.60
2022-12-03T10:35:42.042Z,0.50
2022-12-03T10:38:35.718Z,0.50
2022-12-03T10:41:24.063Z,0.50
2022-12-03T10:43:58.776Z,0.50
2022-12-03T10:46:26.168Z,0.50
2022-12-03T10:49:23.705Z,0.50
2022-12-03T10:51:51.134Z,0.50
2022-12-03T10:54:31.825Z,0.50
2022-12-03T10:56:59.883Z,0.50
2022-12-03T10:59:39.728Z,0.50
2022-12-03T11:02:23.748Z,0.50
2022-12-03T11:04:58.865Z,0.40
2022-12-03T11:07:54.699Z,0.40
2022-12-03T11:14:52.409Z,0.40
2022-12-03T11:17:55.937Z,0.40
2022-12-03T11:20:32.243Z,0.40
2022-12-03T11:23:06.898Z,0.40
2022-12-03T11:25:47.703Z,0.40
2022-12-03T11:28:37.769Z,0.40
2022-12-03T11:31:15.328Z,0.40
2022-12-03T11:33:50.935Z,0.40
2022-12-03T11:36:47.656Z,0.40
2022-12-03T11:39:18.817Z,0.40
2022-12-03T11:42:25.469Z,0.40
2022-12-03T11:45:10.730Z,0.50
2022-12-03T11:48:10.185Z,0.50
2022-12-03T11:51:04.683Z,0.50
2022-12-03T11:53:32.423Z,0.50
2022-12-03T11:56:15.642Z,0.40
2022-12-03T11:58:47.354Z,0.40
2022-12-03T12:01:22.693Z,0.40
2022-12-03T12:03:51.011Z,0.40
2022-12-03T12:06:21.233Z,0.30
2022-12-03T12:08:57.825Z,0.30
2022-12-03T12:11:31.073Z,0.30
2022-12-03T12:14:10.004Z,0.30
2022-12-03T12:16:52.834Z,0.30
2022-12-03T12:19:54.084Z,0.20
2022-12-03T12:22:25.132Z,0.30
2022-12-03T12:25:50.867Z,0.30
2022-12-03T12:28:20.907Z,0.30
2022-12-03T12:30:54.703Z,0.30
2022-12-03T12:33:24.501Z,0.30
2022-12-03T12:36:04.888Z,0.30
2022-12-03T12:38:32.971Z,0.30
2022-12-03T12:41:14.737Z,0.20
2022-12-03T12:43:41.887Z,0.20
2022-12-03T12:46:45.921Z,0.20
2022-12-03T12:49:07.731Z,0.20
2022-12-03T12:51:35.298Z,0.20
2022-12-03T12:54:02.552Z,0.20
2022-12-03T12:56:38.705Z,0.10
2022-12-03T12:59:18.040Z,0.00
2022-12-03T13:01:56.894Z,-0.10
2022-12-03T13:04:24.998Z,-0.10
2022-12-03T13:06:54.375Z,-0.10
2022-12-03T13:09:32.770Z,-0.10
2022-12-03T13:12:07.488Z,-0.10
2022-12-03T13:14:43.735Z,-0.10
2022-12-03T13:17:20.007Z,0.00
2022-12-03T13:20:01.952Z,0.00
2022-12-03T13:22:34.384Z,-0.10
2022-12-03T13:25:59.223Z,-0.10
2022-12-03T13:28:26.189Z,-0.10
2022-12-03T13:30:59.711Z,-0.30
2022-12-03T13:33:26.847Z,-0.30
2022-12-03T13:36:11.743Z,-0.30
2022-12-03T13:38:46.135Z,-0.30
2022-12-03T13:41:43.710Z,-0.30
2022-12-03T13:44:18.223Z,-0.30
2022-12-03T13:46:53.775Z,-0.30
2022-12-03T13:49:23.859Z,-0.30
2022-12-03T13:51:51.987Z,-0.30
2022-12-03T13:54:33.757Z,-0.30
2022-12-03T13:57:02.714Z,-0.30
2022-12-03T13:59:29.839Z,-0.30
2022-12-03T14:02:03.893Z,-0.40
2022-12-03T14:04:30.953Z,-0.40
2022-12-03T14:06:57.970Z,-0.50
2022-12-03T14:09:31.689Z,-0.40
2022-12-03T14:12:17.225Z,-0.40
2022-12-03T14:14:57.705Z,-0.40
2022-12-03T14:17:24.705Z,-0.40
2022-12-03T14:19:52.185Z,-0.40
2022-12-03T14:22:29.745Z,-0.40
2022-12-03T14:24:57.850Z,-0.40
2022-12-03T14:27:24.977Z,-0.40
2022-12-03T14:29:58.743Z,-0.40
2022-12-03T14:32:25.930Z,-0.40
2022-12-03T14:35:12.873Z,-0.50
2022-12-03T14:37:39.921Z,-0.50
2022-12-03T14:40:09.124Z,-0.60
2022-12-03T14:42:43.733Z,-0.60
2022-12-03T14:45:11.399Z,-0.60
2022-12-03T14:47:38.475Z,-0.60
2022-12-03T14:50:12.729Z,-0.60
2022-12-03T14:52:39.879Z,-0.70
2022-12-03T14:55:07.459Z,-0.70
2022-12-03T14:57:40.732Z,-0.70
2022-12-03T15:00:08.606Z,-0.70
2022-12-03T15:02:35.890Z,-0.70
2022-12-03T15:05:09.812Z,-0.70
2022-12-03T15:07:39.393Z,-0.70
2022-12-03T15:10:08.350Z,-0.70
2022-12-03T15:12:42.844Z,-0.70
2022-12-03T15:15:10.660Z,-0.70
2022-12-03T15:17:38.032Z,-0.70
2022-12-03T15:20:12.741Z,-0.70
2022-12-03T15:22:39.941Z,-0.70
2022-12-03T15:25:08.226Z,-0.70
2022-12-03T15:27:41.758Z,-0.80
2022-12-03T15:30:09.650Z,-0.80
2022-12-03T15:32:36.815Z,-0.80
2022-12-03T15:35:10.734Z,-0.80
2022-12-03T15:37:47.541Z,-0.80
2022-12-03T15:40:21.745Z,-0.90
2022-12-03T15:42:48.946Z,-1.00
2022-12-03T15:45:16.297Z,-1.00
2022-12-03T15:47:49.882Z,-1.00
2022-12-03T15:50:18.263Z,-1.00
2022-12-03T15:52:45.237Z,-1.10
2022-12-03T15:55:18.813Z,-1.10
2022-12-03T15:57:45.955Z,-1.10
2022-12-03T16:00:14.445Z,-1.10
2022-12-03T16:02:52.673Z,-1.10
2022-12-03T16:05:20.773Z,-1.10
2022-12-03T16:07:47.801Z,-1.10
2022-12-03T16:10:23.755Z,-1.10
2022-12-03T16:12:50.868Z,-1.10
2022-12-03T16:15:20.988Z,-1.10
2022-12-03T16:17:56.811Z,-1.10
2022-12-03T16:20:24.133Z,-1.10
2022-12-03T16:22:52.124Z,-1.00
2022-12-03T16:25:25.822Z,-1.10
2022-12-03T16:28:23.864Z,-1.10
2022-12-03T16:31:03.775Z,-1.10
2022-12-03T16:33:31.215Z,-1.20
2022-12-03T16:36:11.730Z,-1.20
2022-12-03T16:38:45.429Z,-1.20
2022-12-03T16:41:18.742Z,-1.20
2022-12-03T16:43:48.563Z,-1.20
2022-12-03T16:46:18.967Z,-1.30
2022-12-03T16:48:56.769Z,-1.20
2022-12-03T16:51:28.264Z,-1.20
2022-12-03T16:53:55.585Z,-1.20
2022-12-03T16:56:29.941Z,-1.20
2022-12-03T16:58:57.256Z,-1.20
2022-12-03T17:01:24.506Z,-1.20
2022-12-03T17:03:57.937Z,-1.20
2022-12-03T17:06:24.974Z,-1.20
2022-12-03T17:08:52.298Z,-1.20
2022-12-03T17:11:25.833Z,-1.20
2022-12-03T17:13:52.889Z,-1.10
2022-12-03T17:16:20.333Z,-1.10
2022-12-03T17:18:53.773Z,-1.10
2022-12-03T17:21:21.041Z,-1.10
2022-12-03T17:23:51.039Z,-1.10
2022-12-03T17:26:25.770Z,-1.10
2022-12-03T17:28:52.961Z,-1.10
2022-12-03T17:31:20.083Z,-1.10
2022-12-03T17:33:53.789Z,-1.10
2022-12-03T17:36:28.018Z,-1.10
2022-12-03T17:39:01.853Z,-1.10
2022-12-03T17:41:32.123Z,-1.10
2022-12-03T17:43:59.184Z,-1.20
2022-12-03T17:46:32.838Z,-1.20
2022-12-03T17:49:00.159Z,-1.20
2022-12-03T17:51:27.311Z,-1.20
2022-12-03T17:54:00.737Z,-1.10
2022-12-03T17:56:27.849Z,-1.10
2022-12-03T17:58:54.800Z,-1.20
2022-12-03T18:01:28.996Z,-1.20
2022-12-03T18:03:56.166Z,-1.20
2022-12-03T18:06:26.736Z,-1.20
2022-12-03T18:09:00.758Z,-1.20
2022-12-03T18:11:28.690Z,-1.20
2022-12-03T18:13:55.622Z,-1.20
2022-12-03T18:16:35.762Z,-1.20
2022-12-03T18:19:06.177Z,-1.20
2022-12-03T18:21:34.503Z,-1.30
2022-12-03T18:24:08.734Z,-1.30
2022-12-03T18:26:35.914Z,-1.30
2022-12-03T18:29:03.043Z,-1.30
2022-12-03T18:31:36.801Z,-1.40
2022-12-03T18:34:03.869Z,-1.30
2022-12-03T18:36:43.918Z,-1.30
2022-12-03T18:39:29.724Z,-1.30
2022-12-03T18:42:02.750Z,-1.30
2022-12-03T18:44:29.696Z,-1.30
2022-12-03T18:46:57.781Z,-1.40
2022-12-03T18:49:31.753Z,-1.40
2022-12-03T18:51:59.780Z,-1.40
2022-12-03T18:54:26.927Z,-1.40
2022-12-03T18:57:00.760Z,-1.50
2022-12-03T18:59:27.754Z,-1.50
2022-12-03T19:01:54.908Z,-1.60
2022-12-03T19:04:28.852Z,-1.60
2022-12-03T19:06:56.146Z,-1.70
2022-12-03T19:09:24.025Z,-1.70
2022-12-03T19:11:57.786Z,-1.80
2022-12-03T19:14:24.823Z,-1.70
2022-12-03T19:16:52.239Z,-1.70
2022-12-03T19:19:25.735Z,-1.70
2022-12-03T19:21:53.501Z,-1.80
2022-12-03T19:24:24.979Z,-1.70
2022-12-03T19:27:00.895Z,-1.70
2022-12-03T19:29:27.954Z,-1.70
2022-12-03T19:31:54.975Z,-1.70
2022-12-03T19:34:28.742Z,-1.70
2022-12-03T19:37:01.857Z,-1.70
2022-12-03T19:39:41.804Z,-1.70
2022-12-03T19:42:09.342Z,-1.70
2022-12-03T19:44:36.442Z,-1.70
2022-12-03T19:47:09.861Z,-1.80
2022-12-03T19:49:36.868Z,-1.70
2022-12-03T19:52:04.385Z,-1.80
2022-12-03T19:54:37.770Z,-1.80
2022-12-03T19:57:04.781Z,-1.70
2022-12-03T19:59:31.773Z,-1.70
2022-12-03T20:02:04.859Z,-1.80
2022-12-03T20:04:32.040Z,-1.70
2022-12-03T20:06:59.204Z,-1.70
2022-12-03T20:09:32.744Z,-1.70
2022-12-03T20:11:59.764Z,-1.70
2022-12-03T20:14:26.980Z,-1.70
2022-12-03T20:17:00.841Z,-1.70
2022-12-03T20:19:28.309Z,-1.70
2022-12-03T20:22:02.074Z,-1.70
2022-12-03T20:24:35.766Z,-1.70
2022-12-03T20:27:02.758Z,-1.70
2022-12-03T20:29:29.737Z,-1.70
2022-12-03T20:32:02.849Z,-1.70
2022-12-03T20:34:30.114Z,-1.60
2022-12-03T20:37:10.752Z,-1.60
2022-12-03T20:39:37.779Z,-1.60
2022-12-03T20:42:04.889Z,-1.60
2022-12-03T20:44:38.808Z,-1.60
2022-12-03T20:47:06.048Z,-1.60
2022-12-03T20:49:33.128Z,-1.60
2022-12-03T20:52:06.807Z,-1.70
2022-12-03T20:54:33.758Z,-1.70
2022-12-03T20:57:00.912Z,-1.70
2022-12-03T20:59:34.820Z,-1.70
2022-12-03T21:02:02.234Z,-1.70
2022-12-03T21:04:29.439Z,-1.70
2022-12-03T21:07:02.836Z,-1.80
2022-12-03T21:09:29.898Z,-1.80
2022-12-03T21:11:56.943Z,-1.80
2022-12-03T21:14:30.900Z,-1.70
2022-12-03T21:17:08.368Z,-1.70
2022-12-03T21:19:42.766Z,-1.70
2022-12-03T21:22:10.055Z,-1.70
2022-12-03T21:24:37.314Z,-1.80
2022-12-03T21:27:10.858Z,-1.70
2022-12-03T21:29:38.194Z,-1.70
2022-12-03T21:32:05.401Z,-1.80
2022-12-03T21:34:38.806Z,-1.80
2022-12-03T21:37:25.814Z,-1.70
2022-12-03T21:39:59.816Z,-1.80
2022-12-03T21:42:35.941Z,-1.80
2022-12-03T21:45:11.831Z,-1.80
2022-12-03T21:47:39.308Z,-1.80
2022-12-03T21:50:09.184Z,-1.70
2022-12-03T21:52:42.832Z,-1.80
2022-12-03T21:55:10.631Z,-1.80
2022-12-03T21:57:38.016Z,-1.80
2022-12-03T22:00:15.810Z,-1.80
2022-12-03T22:02:43.077Z,-1.80
2022-12-03T22:05:12.028Z,-1.80
2022-12-03T22:07:46.925Z,-1.70
2022-12-03T22:10:14.729Z,-1.70
2022-12-03T22:12:42.025Z,-1.70
2022-12-03T22:15:19.669Z,-1.70
2022-12-03T22:17:47.951Z,-1.70
2022-12-03T22:20:15.508Z,-1.70
2022-12-03T22:22:48.788Z,-1.70
2022-12-03T22:25:16.245Z,-1.70
2022-12-03T22:27:43.296Z,-1.70
2022-12-03T22:30:16.837Z,-1.70
2022-12-03T22:32:43.893Z,-1.60
2022-12-03T22:35:10.879Z,-1.70
2022-12-03T22:37:44.771Z,-1.70
2022-12-03T22:40:12.094Z,-1.70
2022-12-03T22:42:39.180Z,-1.70
2022-12-03T22:45:13.845Z,-1.60
2022-12-03T22:47:40.980Z,-1.60
2022-12-03T22:50:08.952Z,-1.60
2022-12-03T22:52:42.785Z,-1.60
2022-12-03T22:55:09.966Z,-1.60
2022-12-03T22:57:36.966Z,-1.60
2022-12-03T23:00:16.804Z,-1.60
2022-12-03T23:02:43.959Z,-1.60
2022-12-03T23:05:11.142Z,-1.60
2022-12-03T23:07:44.850Z,-1.60
2022-12-03T23:10:12.206Z,-1.60
2022-12-03T23:12:39.434Z,-1.60
2022-12-03T23:15:14.578Z,-1.60
2022-12-03T23:17:41.600Z,-1.60
2022-12-03T23:20:09.317Z,-1.60
2022-12-03T23:22:43.021Z,-1.50
2022-12-03T23:25:11.497Z,-1.50
2022-12-03T23:27:38.532Z,-1.60
2022-12-03T23:30:14.893Z,-1.50
2022-12-03T23:32:44.559Z,-1.50
2022-12-03T23:35:12.888Z,-1.60
2022-12-03T23:37:49.764Z,-1.60
2022-12-03T23:40:16.867Z,-1.60
2022-12-03T23:42:44.450Z,-1.60
2022-12-03T23:45:17.784Z,-1.60
2022-12-03T23:47:44.799Z,-1.60
2022-12-03T23:50:12.331Z,-1.60
2022-12-03T23:52:45.803Z,-1.60
2022-12-03T23:55:12.891Z,-1.60
2022-12-03T23:57:39.899Z,-1.60
